Alpena, MI

5:25 AM EDT on May 30, 2015 (GMT -0400)
Alpena County Regional | | Change Station
CLOSE
Current Station
Airport
Location: Alpena,
Elevation: 689 ft
Nearby Weather Stations

Elev 689 ft 45.07 °N, 83.56 °W | Updated 25 minutes ago

Overcast
Overcast
65 °F
Feels Like 65 °F
N
6
Wind Variable Wind from NW

Today
High -- | Low -- °F
--% Chance of Precip.
Yesterday
High -- | Low -- °F
Precip. -- in
5:51 AM 9:11 PM
Waxing Gibbous, 89% visible
Pressure 29.86 in
Visibility 10.0 miles
Clouds Mostly Cloudy 700 ft
Mostly Cloudy 1200 ft
Overcast 3500 ft
Dew Point 63 °F
Humidity 93%
Rainfall 0.06 in
Snow Depth Not available.
UV 0 out of 12
Pollen 7.30 out of 12
Air Quality Not available.
Flu Activity Sporadic
SPECI KAPN 300900Z AUTO 31005KT 10SM BKN007 BKN012 OVC035 18/17 A2986 RMK AO2 T01830172

More Conditions Fewer Conditions

Pressure 29.86 in
Visibility 10.0 miles
Clouds Mostly Cloudy 700 ft
Mostly Cloudy 1200 ft
Overcast 3500 ft
Dew Point 63 °F
Humidity 93%
Rainfall 0.06 in
Snow Depth Not available.
UV 0 out of 12
Pollen 7.30 out of 12
Air Quality Not available.
Flu Activity Sporadic
SPECI KAPN 300900Z AUTO 31005KT 10SM BKN007 BKN012 OVC035 18/17 A2986 RMK AO2 T01830172

More Conditions Fewer Conditions

Nowcast | as of 5:00 am EDT on May 30, 2015

At 6 am...patchy fog. Showers likely. Temperature 63. West winds 9 mph. At 8 am...rain. Temperature 60. Northwest winds 9 mph. At 10 am...rain. Temperature 57. Northwest winds 10 mph. At 12 PM...rain. Temperature 55. Northwest winds 11 mph.

×

10-Day Weather Forecast

Almanac

Astronomy

May. 30, 2015 Rise Set
Actual Time
Civil Twilight
Nautical Twilight
Astronomical Twilight
Moon
Length of Visible Light
Length of Day
Tomorrow will be .
, % of the Moon is Illuminated

Today's Extremes

State Highs State Lows

Community

WunderPhotos

Upload Photos

1,825,475 photos uploaded!

WunderBlogs® & News

Nearby

Air Quality

  Air Quality AQ Index Pollutant
Not available.

Snow Depth

Station Depth Elevation

Earthquake Activity

City Distance Mag. Time & Date
Minimum magnitude displayed is 2.5.

Coastal Water Temperatures

Place Temperature

Stations

Nearby Weather Stations

Station Location Temp. Windchill Dew Point Humidity Wind Precip. Elev Updated Type